createdAt,value
2023-11-14T00:00:38.564Z,24.58
2023-11-14T00:03:06.834Z,29.98
2023-11-14T00:05:37.967Z,37.97
2023-11-14T00:08:05.260Z,24.15
2023-11-14T00:10:31.778Z,25.47
2023-11-14T00:12:58.365Z,33.28
2023-11-14T00:15:27.564Z,30.80
2023-11-14T00:17:54.335Z,30.15
2023-11-14T00:20:20.920Z,32.65
2023-11-14T00:22:47.465Z,31.20
2023-11-14T00:25:13.952Z,32.75
2023-11-14T00:27:41.069Z,31.88
2023-11-14T00:30:08.700Z,30.10
2023-11-14T00:32:35.191Z,28.05
2023-11-14T00:35:01.873Z,30.00
2023-11-14T00:37:29.851Z,36.13
2023-11-14T00:39:56.420Z,19.85
2023-11-14T00:42:22.947Z,22.20
2023-11-14T00:44:50.109Z,31.35
2023-11-14T00:47:16.665Z,27.73
2023-11-14T00:49:43.147Z,29.58
2023-11-14T00:52:09.576Z,24.05
2023-11-14T00:54:35.999Z,27.60
2023-11-14T00:57:02.429Z,27.95
2023-11-14T00:59:29.487Z,30.23
2023-11-14T01:01:59.574Z,28.23
2023-11-14T01:04:27.038Z,23.65
2023-11-14T01:06:53.422Z,24.38
2023-11-14T01:09:19.965Z,22.48
2023-11-14T01:11:47.873Z,25.03
2023-11-14T01:14:14.361Z,31.38
2023-11-14T01:16:40.792Z,31.92
2023-11-14T01:19:07.261Z,32.75
2023-11-14T01:21:33.692Z,29.67
2023-11-14T01:24:00.115Z,25.33
2023-11-14T01:26:33.155Z,31.50
2023-11-14T01:28:59.674Z,28.00
2023-11-14T01:31:26.116Z,24.70
2023-11-14T01:33:52.578Z,23.65
2023-11-14T01:36:18.997Z,27.03
2023-11-14T01:38:45.899Z,22.52
2023-11-14T01:41:13.330Z,19.27
2023-11-14T01:43:46.870Z,38.90
2023-11-14T01:46:17.039Z,27.02
2023-11-14T01:48:47.516Z,21.23
2023-11-14T01:51:14.946Z,27.38
2023-11-14T01:53:41.784Z,20.58
2023-11-14T01:56:10.963Z,27.98
2023-11-14T01:58:37.772Z,24.42
2023-11-14T02:01:04.970Z,32.37
2023-11-14T02:03:34.026Z,31.00
2023-11-14T02:06:00.643Z,34.15
2023-11-14T02:08:27.236Z,22.42
2023-11-14T02:10:53.662Z,38.85
2023-11-14T02:13:20.175Z,31.97
2023-11-14T02:15:46.655Z,24.48
2023-11-14T02:18:17.533Z,28.25
2023-11-14T02:20:44.054Z,25.52
2023-11-14T02:23:12.300Z,28.38
2023-11-14T02:25:38.802Z,28.03
2023-11-14T02:28:05.181Z,30.48
2023-11-14T02:30:32.175Z,30.02
2023-11-14T02:32:58.648Z,24.45
2023-11-14T02:35:25.259Z,30.25
2023-11-14T02:37:51.900Z,29.43
2023-11-14T02:40:18.488Z,26.45
2023-11-14T02:42:45.155Z,20.77
2023-11-14T02:45:12.060Z,28.75
2023-11-14T02:47:39.027Z,27.02
2023-11-14T02:50:19.354Z,26.60
2023-11-14T02:52:45.910Z,24.42
2023-11-14T02:55:12.301Z,24.40
2023-11-14T02:57:38.688Z,24.20
2023-11-14T03:00:05.922Z,20.95
2023-11-14T03:02:32.345Z,25.93
2023-11-14T03:04:58.914Z,19.65
2023-11-14T03:07:25.350Z,26.02
2023-11-14T03:09:51.751Z,32.65
2023-11-14T03:12:18.398Z,29.42
2023-11-14T03:14:44.950Z,33.43
2023-11-14T03:17:11.587Z,28.55
2023-11-14T03:19:44.259Z,24.13
2023-11-14T03:22:11.962Z,21.70
2023-11-14T03:24:40.248Z,24.90
2023-11-14T03:27:07.014Z,25.57
2023-11-14T03:29:33.477Z,24.77
2023-11-14T03:32:00.475Z,25.55
2023-11-14T03:34:27.208Z,26.30
2023-11-14T03:36:54.383Z,21.08
2023-11-14T03:39:21.585Z,20.57
2023-11-14T03:41:48.060Z,19.73
2023-11-14T03:44:14.441Z,21.00
2023-11-14T03:46:42.977Z,28.15
2023-11-14T03:49:09.441Z,15.00
2023-11-14T03:51:35.866Z,28.30
2023-11-14T03:54:02.266Z,20.27
2023-11-14T03:56:28.734Z,23.40
2023-11-14T03:58:55.367Z,23.00
2023-11-14T04:01:22.178Z,28.77
2023-11-14T04:03:49.262Z,16.40
2023-11-14T04:06:15.727Z,23.15
2023-11-14T04:08:42.233Z,21.15
2023-11-14T04:11:08.817Z,25.67
2023-11-14T04:13:37.960Z,18.45
2023-11-14T04:16:06.733Z,21.40
2023-11-14T04:18:34.661Z,18.77
2023-11-14T04:21:01.184Z,17.70
2023-11-14T04:23:27.543Z,18.70
2023-11-14T04:25:54.044Z,22.50
2023-11-14T04:28:20.576Z,25.07
2023-11-14T04:30:46.968Z,28.27
2023-11-14T04:33:13.387Z,21.15
2023-11-14T04:35:39.859Z,20.08
2023-11-14T04:38:06.233Z,22.95
2023-11-14T04:40:32.686Z,23.37
2023-11-14T04:42:59.131Z,22.88
2023-11-14T04:45:26.930Z,22.35
2023-11-14T04:47:53.343Z,14.15
2023-11-14T04:50:21.554Z,20.27
2023-11-14T04:52:48.212Z,28.23
2023-11-14T04:55:14.748Z,17.17
2023-11-14T04:57:41.135Z,17.67
2023-11-14T05:00:09.951Z,26.40
2023-11-14T05:02:36.661Z,18.88
2023-11-14T05:05:03.333Z,24.63
2023-11-14T05:07:29.766Z,24.75
2023-11-14T05:09:56.247Z,24.38
2023-11-14T05:12:22.653Z,22.30
2023-11-14T05:14:49.051Z,28.17
2023-11-14T05:17:15.532Z,24.17
2023-11-14T05:19:45.415Z,20.05
2023-11-14T05:22:13.650Z,29.98
2023-11-14T05:24:40.817Z,24.60
2023-11-14T05:27:07.238Z,20.50
2023-11-14T05:29:36.924Z,23.83
2023-11-14T05:32:04.365Z,19.77
2023-11-14T05:34:30.844Z,23.58
2023-11-14T05:36:57.290Z,25.60
2023-11-14T05:39:23.849Z,18.05
2023-11-14T05:41:50.250Z,23.37
2023-11-14T05:44:16.939Z,22.35
2023-11-14T05:46:44.873Z,27.98
2023-11-14T05:49:12.569Z,23.77
2023-11-14T05:51:39.622Z,27.02
2023-11-14T05:54:06.619Z,19.93
2023-11-14T05:56:33.026Z,27.35
2023-11-14T05:58:59.428Z,19.23
2023-11-14T06:01:25.983Z,23.42
2023-11-14T06:03:52.466Z,22.42
2023-11-14T06:06:18.937Z,24.50
2023-11-14T06:08:45.378Z,22.88
2023-11-14T06:11:14.229Z,22.35
2023-11-14T06:13:45.401Z,31.42
2023-11-14T06:16:12.353Z,25.13
2023-11-14T06:18:38.824Z,26.10
2023-11-14T06:21:05.438Z,19.92
2023-11-14T06:23:32.202Z,24.65
2023-11-14T06:25:59.409Z,22.73
2023-11-14T06:28:25.902Z,23.15
2023-11-14T06:30:52.281Z,32.97
2023-11-14T06:33:18.669Z,23.65
2023-11-14T06:35:46.347Z,31.58
2023-11-14T06:38:12.796Z,27.67
2023-11-14T06:40:40.428Z,27.92
2023-11-14T06:43:08.088Z,28.27
2023-11-14T06:45:34.501Z,28.83
2023-11-14T06:48:01.032Z,27.80
2023-11-14T06:50:37.437Z,27.42
2023-11-14T06:53:10.228Z,34.10
2023-11-14T06:55:36.728Z,32.03
2023-11-14T06:58:03.098Z,22.60
2023-11-14T07:00:32.093Z,33.50
2023-11-14T07:02:59.131Z,28.42
2023-11-14T07:05:26.162Z,23.40
2023-11-14T07:07:53.920Z,26.37
2023-11-14T07:10:21.078Z,27.90
2023-11-14T07:12:47.558Z,34.15
2023-11-14T07:15:13.969Z,25.80
2023-11-14T07:17:41.015Z,28.73
2023-11-14T07:20:11.598Z,31.13
2023-11-14T07:22:41.739Z,29.40
2023-11-14T07:25:10.605Z,22.77
2023-11-14T07:27:42.318Z,20.02
2023-11-14T07:30:10.633Z,28.10
2023-11-14T07:32:37.311Z,19.03
2023-11-14T07:35:04.141Z,31.25
2023-11-14T07:37:30.735Z,23.42
2023-11-14T07:39:57.816Z,24.58
2023-11-14T07:42:27.250Z,27.67
2023-11-14T07:44:53.741Z,24.07
2023-11-14T07:47:21.504Z,26.65
2023-11-14T07:49:48.701Z,27.92
2023-11-14T07:52:15.151Z,26.20
2023-11-14T07:54:41.772Z,18.98
2023-11-14T07:57:08.162Z,23.70
2023-11-14T07:59:35.083Z,17.88
2023-11-14T08:02:01.628Z,19.98
2023-11-14T08:04:28.927Z,26.00
2023-11-14T08:06:55.364Z,28.10
2023-11-14T08:09:21.770Z,32.90
2023-11-14T08:11:48.670Z,26.83
2023-11-14T08:14:16.267Z,27.48
2023-11-14T08:16:42.859Z,24.65
2023-11-14T08:19:09.383Z,30.73
2023-11-14T08:21:35.829Z,28.00
2023-11-14T08:24:02.353Z,29.73
2023-11-14T08:26:28.892Z,27.35
2023-11-14T08:28:55.556Z,32.20
2023-11-14T08:31:22.066Z,18.10
2023-11-14T08:33:48.500Z,30.00
2023-11-14T08:36:15.921Z,23.05
2023-11-14T08:38:42.462Z,25.98
2023-11-14T08:41:09.178Z,22.40
2023-11-14T08:43:35.984Z,22.88
2023-11-14T08:46:02.634Z,25.13
2023-11-14T08:48:29.111Z,27.55
2023-11-14T08:50:55.585Z,21.27
2023-11-14T08:53:22.555Z,24.55
2023-11-14T08:55:49.263Z,32.60
2023-11-14T08:58:15.665Z,26.20
2023-11-14T09:00:42.072Z,29.73
2023-11-14T09:03:08.683Z,17.75
2023-11-14T09:05:35.662Z,26.55
2023-11-14T09:08:02.165Z,27.05
2023-11-14T09:10:28.728Z,24.67
2023-11-14T09:12:55.228Z,27.73
2023-11-14T09:15:21.712Z,19.15
2023-11-14T09:17:52.392Z,27.75
2023-11-14T09:20:21.827Z,26.50
2023-11-14T09:22:48.367Z,22.70
2023-11-14T09:25:15.457Z,27.27
2023-11-14T09:27:42.490Z,27.65
2023-11-14T09:30:10.068Z,28.80
2023-11-14T09:32:36.826Z,22.73
2023-11-14T09:35:03.824Z,27.33
2023-11-14T09:37:30.303Z,18.77
2023-11-14T09:39:56.813Z,23.10
2023-11-14T09:42:23.987Z,20.65
2023-11-14T09:44:50.965Z,23.95
2023-11-14T09:47:18.381Z,31.33
2023-11-14T09:49:45.050Z,27.00
2023-11-14T09:52:12.980Z,27.70
2023-11-14T09:54:43.836Z,24.52
2023-11-14T09:57:12.062Z,32.55
2023-11-14T09:59:42.800Z,26.60
2023-11-14T10:02:09.351Z,25.75
2023-11-14T10:04:35.886Z,25.77
2023-11-14T10:07:02.564Z,31.38
2023-11-14T10:09:29.132Z,31.50
2023-11-14T10:12:16.804Z,30.73
2023-11-14T10:14:47.119Z,28.25
2023-11-14T10:17:15.089Z,27.27
2023-11-14T10:20:02.285Z,30.52
2023-11-14T10:22:29.055Z,26.75
2023-11-14T10:24:55.852Z,31.63
2023-11-14T10:27:37.821Z,28.60
2023-11-14T10:30:04.846Z,30.55
2023-11-14T10:32:31.843Z,28.90
2023-11-14T10:35:16.465Z,28.95
2023-11-14T10:37:42.864Z,28.83
2023-11-14T10:40:09.986Z,26.10
2023-11-14T10:42:36.857Z,24.85
2023-11-14T10:45:11.550Z,34.15
2023-11-14T10:47:42.780Z,29.05
2023-11-14T10:50:30.061Z,16.03
2023-11-14T10:52:57.591Z,35.13
2023-11-14T10:55:25.619Z,24.30
2023-11-14T10:57:53.200Z,30.20
2023-11-14T11:00:22.298Z,28.08
2023-11-14T11:02:54.059Z,23.53
2023-11-14T11:05:28.096Z,27.25
2023-11-14T11:07:59.972Z,24.92
2023-11-14T11:10:31.947Z,23.15
2023-11-14T11:13:00.523Z,47.13
2023-11-14T11:15:28.165Z,26.33
2023-11-14T11:18:01.711Z,24.70
2023-11-14T11:20:31.279Z,33.13
2023-11-14T11:23:11.844Z,34.38
2023-11-14T11:25:45.799Z,30.95
2023-11-14T11:28:35.013Z,24.87
2023-11-14T11:31:12.674Z,33.60
2023-11-14T11:33:42.811Z,32.53
2023-11-14T11:36:21.594Z,26.25
2023-11-14T11:39:04.088Z,22.67
2023-11-14T11:41:39.720Z,38.40
2023-11-14T11:44:13.570Z,23.40
2023-11-14T11:46:47.962Z,32.75
2023-11-14T11:49:14.434Z,21.73
2023-11-14T11:51:44.887Z,27.38
2023-11-14T11:54:29.891Z,32.87
2023-11-14T11:57:11.804Z,33.20
2023-11-14T11:59:41.572Z,26.85
2023-11-14T12:02:11.931Z,25.92
2023-11-14T12:04:39.718Z,30.13
2023-11-14T12:07:07.063Z,27.53
2023-11-14T12:09:33.542Z,25.63
2023-11-14T12:11:59.928Z,30.52
2023-11-14T12:14:30.131Z,27.60
2023-11-14T12:17:01.063Z,20.08
2023-11-14T12:19:27.799Z,24.00
2023-11-14T12:21:55.463Z,18.95
2023-11-14T12:24:23.398Z,19.08
2023-11-14T12:26:50.270Z,25.05
2023-11-14T12:29:18.936Z,23.02
2023-11-14T12:31:51.907Z,21.43
2023-11-14T12:34:30.634Z,20.88
2023-11-14T12:37:11.586Z,21.20
2023-11-14T12:39:38.049Z,31.55
2023-11-14T12:42:07.805Z,18.77
2023-11-14T12:44:34.856Z,21.93
2023-11-14T12:47:01.500Z,26.98
2023-11-14T12:49:32.688Z,21.35
2023-11-14T12:52:02.361Z,29.80
2023-11-14T12:54:29.003Z,14.57
2023-11-14T12:56:56.219Z,20.83
2023-11-14T12:59:23.123Z,18.10
2023-11-14T13:01:50.589Z,24.92
2023-11-14T13:04:17.958Z,27.08
2023-11-14T13:06:47.395Z,18.00
2023-11-14T13:09:16.958Z,18.83
2023-11-14T13:11:44.274Z,16.88
2023-11-14T13:14:12.048Z,19.60
2023-11-14T13:16:39.796Z,21.63
2023-11-14T13:19:06.765Z,18.90
2023-11-14T13:21:33.273Z,14.70
2023-11-14T13:23:59.846Z,15.35
2023-11-14T13:26:26.280Z,15.38
2023-11-14T13:28:52.923Z,17.95
2023-11-14T13:31:20.197Z,13.25
2023-11-14T13:33:47.421Z,20.67
2023-11-14T13:36:17.490Z,16.48
2023-11-14T13:38:45.951Z,13.82
2023-11-14T13:43:42.519Z,12.07
2023-11-14T13:46:17.863Z,18.63
2023-11-14T13:48:50.622Z,13.48
2023-11-14T13:51:19.184Z,7.82
2023-11-14T13:53:45.708Z,7.88
2023-11-14T13:56:12.598Z,9.95
2023-11-14T13:58:39.058Z,11.43
2023-11-14T14:01:12.672Z,12.98
2023-11-14T14:03:39.935Z,10.85
2023-11-14T14:06:08.526Z,9.75
2023-11-14T14:08:38.563Z,11.50
2023-11-14T14:11:09.018Z,14.50
2023-11-14T14:13:36.248Z,14.20
2023-11-14T14:16:08.795Z,12.93
2023-11-14T14:18:35.334Z,9.23
2023-11-14T14:21:05.238Z,9.23
2023-11-14T14:23:32.424Z,6.70
2023-11-14T14:26:00.269Z,6.15
2023-11-14T14:28:36.098Z,6.13
2023-11-14T14:31:06.713Z,9.88
2023-11-14T14:33:33.784Z,6.65
2023-11-14T14:36:00.428Z,9.80
2023-11-14T14:38:27.044Z,7.20
2023-11-14T14:40:53.599Z,8.05
2023-11-14T14:43:20.276Z,7.68
2023-11-14T14:45:47.544Z,6.18
2023-11-14T14:48:14.478Z,9.20
2023-11-14T14:50:41.416Z,4.95
2023-11-14T14:53:08.111Z,8.07
2023-11-14T14:55:34.713Z,8.75
2023-11-14T14:58:05.027Z,11.57
2023-11-14T15:00:32.761Z,10.23
2023-11-14T15:03:00.117Z,7.45
2023-11-14T15:05:29.093Z,12.40
2023-11-14T15:07:55.552Z,7.55
2023-11-14T15:10:22.777Z,7.22
2023-11-14T15:12:49.205Z,5.23
2023-11-14T15:15:15.873Z,4.53
2023-11-14T15:17:42.469Z,4.18
2023-11-14T15:20:11.969Z,6.22
2023-11-14T15:22:38.515Z,5.30
2023-11-14T15:25:08.568Z,5.07
2023-11-14T15:27:35.035Z,5.60
2023-11-14T15:30:03.970Z,10.35
2023-11-14T15:32:31.729Z,6.53
2023-11-14T15:34:59.134Z,7.60
2023-11-14T15:37:25.633Z,7.00
2023-11-14T15:39:52.241Z,7.10
2023-11-14T15:42:18.739Z,7.95
2023-11-14T15:44:47.414Z,4.90
2023-11-14T15:47:14.580Z,4.35
2023-11-14T15:49:41.408Z,4.97
2023-11-14T15:52:08.400Z,3.67
2023-11-14T15:54:34.983Z,5.30
2023-11-14T15:57:02.266Z,5.55
2023-11-14T15:59:28.879Z,4.88
2023-11-14T16:01:55.501Z,2.60
2023-11-14T16:04:22.040Z,6.70
2023-11-14T16:06:48.457Z,5.65
2023-11-14T16:09:14.886Z,3.40
2023-11-14T16:11:41.268Z,4.30
2023-11-14T16:14:08.295Z,4.43
2023-11-14T16:16:34.752Z,5.80
2023-11-14T16:19:01.166Z,10.55
2023-11-14T16:21:27.623Z,6.85
2023-11-14T16:23:56.368Z,2.88
2023-11-14T16:26:23.385Z,7.93
2023-11-14T16:28:49.805Z,5.93
2023-11-14T16:31:16.672Z,3.05
2023-11-14T16:33:43.646Z,8.43
2023-11-14T16:36:10.022Z,1.77
2023-11-14T16:38:36.492Z,7.13
2023-11-14T16:41:03.009Z,4.55
2023-11-14T16:43:30.413Z,6.20
2023-11-14T16:45:56.967Z,2.15
2023-11-14T16:48:23.476Z,3.00
2023-11-14T16:50:49.872Z,5.30
2023-11-14T16:53:16.520Z,1.63
2023-11-14T16:55:42.947Z,6.47
2023-11-14T16:58:10.066Z,4.28
2023-11-14T17:00:36.528Z,3.13
2023-11-14T17:03:03.049Z,3.83
2023-11-14T17:05:29.813Z,7.32
2023-11-14T17:07:57.725Z,5.97
2023-11-14T17:10:25.673Z,1.67
2023-11-14T17:12:53.305Z,5.18
2023-11-14T17:15:19.730Z,4.20
2023-11-14T17:17:46.461Z,6.75
2023-11-14T17:20:13.034Z,8.70
2023-11-14T17:22:39.626Z,3.70
2023-11-14T17:25:06.693Z,6.97
2023-11-14T17:27:33.106Z,3.53
2023-11-14T17:29:59.594Z,4.53
2023-11-14T17:32:27.411Z,4.05
2023-11-14T17:34:54.851Z,5.85
2023-11-14T17:37:22.216Z,3.92
2023-11-14T17:39:48.628Z,7.27
2023-11-14T17:42:15.047Z,5.43
2023-11-14T17:44:41.567Z,3.38
2023-11-14T17:47:10.866Z,8.10
2023-11-14T17:49:40.632Z,4.82
2023-11-14T17:52:07.245Z,8.37
2023-11-14T17:54:34.337Z,6.88
2023-11-14T17:57:00.996Z,8.40
2023-11-14T17:59:27.510Z,7.75
2023-11-14T18:01:54.197Z,7.35
2023-11-14T18:04:20.862Z,4.67
2023-11-14T18:06:48.981Z,6.15
2023-11-14T18:09:16.141Z,11.02
2023-11-14T18:11:42.541Z,6.90
2023-11-14T18:14:09.112Z,7.60
2023-11-14T18:16:35.996Z,6.30
2023-11-14T18:19:02.578Z,3.97
2023-11-14T18:21:29.030Z,12.02
2023-11-14T18:23:55.443Z,3.72
2023-11-14T18:26:24.821Z,9.88
2023-11-14T18:28:51.356Z,6.70
2023-11-14T18:31:17.892Z,9.65
2023-11-14T18:33:44.613Z,9.57
2023-11-14T18:36:11.256Z,7.63
2023-11-14T18:38:40.241Z,4.18
2023-11-14T18:41:06.868Z,4.60
2023-11-14T18:43:33.350Z,5.10
2023-11-14T18:46:00.478Z,6.15
2023-11-14T18:48:26.941Z,3.88
2023-11-14T18:50:53.890Z,6.55
2023-11-14T18:53:22.001Z,4.00
2023-11-14T18:55:49.071Z,4.57
2023-11-14T18:58:18.750Z,7.93
2023-11-14T19:00:46.038Z,3.78
2023-11-14T19:03:12.742Z,5.78
2023-11-14T19:05:39.400Z,4.47
2023-11-14T19:08:05.888Z,3.78
2023-11-14T19:10:32.315Z,6.88
2023-11-14T19:12:58.729Z,6.45
2023-11-14T19:15:25.214Z,7.15
2023-11-14T19:17:52.275Z,4.63
2023-11-14T19:20:18.852Z,10.18
2023-11-14T19:23:36.158Z,6.95
2023-11-14T19:25:31.942Z,5.20
2023-11-14T19:27:58.384Z,7.40
2023-11-14T19:30:24.859Z,9.53
2023-11-14T19:32:51.351Z,6.47
2023-11-14T19:35:17.950Z,10.00
2023-11-14T19:37:44.429Z,9.98
2023-11-14T19:40:12.545Z,6.07
2023-11-14T19:42:39.808Z,9.73
2023-11-14T19:45:06.551Z,8.13
2023-11-14T19:47:33.993Z,8.93
2023-11-14T19:50:01.464Z,7.78
2023-11-14T19:52:28.519Z,7.75
2023-11-14T19:54:55.032Z,4.20
2023-11-14T19:57:23.587Z,8.18
2023-11-14T19:59:50.048Z,11.35
2023-11-14T20:02:16.570Z,11.93
2023-11-14T20:04:44.537Z,10.02
2023-11-14T20:07:11.005Z,10.70
2023-11-14T20:09:37.435Z,13.38
2023-11-14T20:12:04.418Z,10.05
2023-11-14T20:14:30.928Z,10.82
2023-11-14T20:16:57.529Z,8.60
2023-11-14T20:19:23.913Z,9.73
2023-11-14T20:21:50.286Z,7.15
2023-11-14T20:24:17.256Z,8.80
2023-11-14T20:26:43.975Z,10.93
2023-11-14T20:29:10.744Z,10.68
2023-11-14T20:31:37.475Z,10.70
2023-11-14T20:34:04.316Z,11.73
2023-11-14T20:36:31.826Z,12.70
2023-11-14T20:38:59.547Z,9.50
2023-11-14T20:41:26.615Z,14.57
2023-11-14T20:43:53.139Z,11.60
2023-11-14T20:46:19.599Z,14.10
2023-11-14T20:48:46.186Z,10.77
2023-11-14T20:51:21.752Z,12.02
2023-11-14T20:53:53.556Z,13.90
2023-11-14T20:56:24.513Z,15.27
2023-11-14T20:58:50.987Z,17.00
2023-11-14T21:01:17.458Z,8.95
2023-11-14T21:03:43.919Z,13.45
2023-11-14T21:06:10.502Z,13.43
2023-11-14T21:08:36.947Z,15.10
2023-11-14T21:11:03.650Z,16.50
2023-11-14T21:13:30.098Z,11.20
2023-11-14T21:15:56.511Z,11.55
2023-11-14T21:18:24.321Z,10.07
2023-11-14T21:20:50.935Z,11.43
2023-11-14T21:23:17.595Z,15.02
2023-11-14T21:25:44.298Z,8.88
2023-11-14T21:28:10.828Z,12.88
2023-11-14T21:30:37.497Z,6.57
2023-11-14T21:33:04.383Z,9.60
2023-11-14T21:35:31.005Z,12.40
2023-11-14T21:37:57.453Z,16.73
2023-11-14T21:40:24.578Z,10.45
2023-11-14T21:42:51.157Z,12.40
2023-11-14T21:45:18.490Z,9.47
2023-11-14T21:47:45.105Z,10.75
2023-11-14T21:50:12.746Z,10.00
2023-11-14T21:52:39.192Z,11.70
2023-11-14T21:55:06.196Z,10.05
2023-11-14T21:57:32.594Z,18.67
2023-11-14T21:59:59.505Z,9.90
2023-11-14T22:02:26.453Z,9.57
2023-11-14T22:04:53.713Z,13.93
2023-11-14T22:07:20.198Z,6.72
2023-11-14T22:09:46.600Z,5.47
2023-11-14T22:12:12.980Z,6.53
2023-11-14T22:14:39.712Z,11.02
2023-11-14T22:17:06.907Z,7.05
2023-11-14T22:19:33.293Z,10.82
2023-11-14T22:22:00.261Z,12.80
2023-11-14T22:24:27.507Z,5.45
2023-11-14T22:26:57.464Z,10.82
2023-11-14T22:29:24.382Z,7.38
2023-11-14T22:31:51.812Z,6.20
2023-11-14T22:34:18.610Z,6.10
2023-11-14T22:36:45.069Z,7.38
2023-11-14T22:39:11.461Z,5.30
2023-11-14T22:41:37.908Z,5.55
2023-11-14T22:44:04.589Z,8.73
2023-11-14T22:46:31.197Z,4.00
2023-11-14T22:48:57.625Z,4.60
2023-11-14T22:51:24.420Z,8.25
2023-11-14T22:53:51.113Z,6.57
2023-11-14T22:56:21.537Z,4.28
2023-11-14T22:58:48.006Z,5.53
2023-11-14T23:01:15.399Z,5.70
2023-11-14T23:03:47.762Z,8.40
2023-11-14T23:06:21.300Z,11.80
2023-11-14T23:08:50.024Z,13.90
2023-11-14T23:11:21.160Z,13.67
2023-11-14T23:13:47.752Z,5.30
2023-11-14T23:16:14.281Z,10.20
2023-11-14T23:18:40.701Z,9.68
2023-11-14T23:21:11.695Z,6.75
2023-11-14T23:23:38.735Z,8.03
2023-11-14T23:26:05.382Z,9.30
2023-11-14T23:28:31.912Z,7.18
2023-11-14T23:30:59.488Z,11.75
2023-11-14T23:33:26.013Z,13.93
2023-11-14T23:35:52.443Z,10.37
2023-11-14T23:38:18.938Z,7.80
2023-11-14T23:40:45.525Z,9.40
2023-11-14T23:43:12.598Z,4.78
2023-11-14T23:45:40.690Z,12.75
2023-11-14T23:48:08.367Z,10.00
2023-11-14T23:50:35.907Z,9.70
2023-11-14T23:53:02.749Z,5.63
2023-11-14T23:55:29.129Z,5.43
2023-11-14T23:57:55.658Z,7.13
